createdAt,value
2022-12-17T00:01:08.619Z,-1.90
2022-12-17T00:03:56.895Z,-1.90
2022-12-17T00:06:42.511Z,-1.90
2022-12-17T00:09:28.278Z,-1.80
2022-12-17T00:12:13.618Z,-1.90
2022-12-17T00:14:59.119Z,-1.90
2022-12-17T00:17:44.486Z,-1.90
2022-12-17T00:20:33.052Z,-1.80
2022-12-17T00:23:22.813Z,-1.80
2022-12-17T00:26:09.098Z,-1.80
2022-12-17T00:28:55.112Z,-1.80
2022-12-17T00:31:42.400Z,-1.80
2022-12-17T00:34:38.861Z,-1.80
2022-12-17T00:37:24.438Z,-1.80
2022-12-17T00:40:09.916Z,-1.80
2022-12-17T00:43:15.308Z,-1.80
2022-12-17T00:46:01.149Z,-1.80
2022-12-17T00:48:46.773Z,-1.80
2022-12-17T00:51:32.017Z,-1.80
2022-12-17T00:54:17.955Z,-1.80
2022-12-17T00:57:03.305Z,-1.70
2022-12-17T00:59:48.996Z,-1.60
2022-12-17T01:02:34.536Z,-1.60
2022-12-17T01:05:20.214Z,-1.60
2022-12-17T01:08:05.722Z,-1.60
2022-12-17T01:10:51.904Z,-1.60
2022-12-17T01:13:38.975Z,-1.50
2022-12-17T01:16:30.291Z,-1.50
2022-12-17T01:19:16.816Z,-1.60
2022-12-17T01:22:03.821Z,-1.50
2022-12-17T01:24:49.243Z,-1.50
2022-12-17T01:27:35.096Z,-1.50
2022-12-17T01:30:20.990Z,-1.50
2022-12-17T01:33:06.347Z,-1.50
2022-12-17T01:35:51.697Z,-1.50
2022-12-17T01:38:38.066Z,-1.50
2022-12-17T01:41:24.234Z,-1.50
2022-12-17T01:44:09.660Z,-1.50
2022-12-17T01:46:57.474Z,-1.50
2022-12-17T01:49:44.357Z,-1.50
2022-12-17T01:52:34.422Z,-1.50
2022-12-17T01:55:21.699Z,-1.50
2022-12-17T01:58:07.423Z,-2.30
2022-12-17T02:00:52.830Z,-1.50
2022-12-17T02:03:44.563Z,-1.40
2022-12-17T02:06:50.156Z,-1.40
2022-12-17T02:09:41.625Z,-1.40
2022-12-17T02:12:44.101Z,-1.40
2022-12-17T02:15:29.457Z,-1.50
2022-12-17T02:18:19.717Z,-1.40
2022-12-17T02:21:06.968Z,-1.40
2022-12-17T02:23:58.582Z,-1.40
2022-12-17T02:26:55.223Z,-1.40
2022-12-17T02:29:41.694Z,-1.40
2022-12-17T02:32:28.025Z,-1.40
2022-12-17T02:35:14.290Z,-1.40
2022-12-17T02:38:10.287Z,-1.40
2022-12-17T02:40:56.799Z,-1.40
2022-12-17T02:43:44.275Z,-1.30
2022-12-17T02:46:32.486Z,-1.30
2022-12-17T02:49:18.657Z,-1.20
2022-12-17T02:52:05.294Z,-1.20
2022-12-17T02:54:51.424Z,-1.20
2022-12-17T02:57:39.941Z,-1.20
2022-12-17T03:00:29.100Z,-1.20
2022-12-17T03:03:14.785Z,-1.20
2022-12-17T03:06:00.138Z,-1.20
2022-12-17T03:08:45.616Z,-1.20
2022-12-17T03:11:31.352Z,-1.10
2022-12-17T03:14:16.857Z,-1.10
2022-12-17T03:17:02.699Z,-1.10
2022-12-17T03:19:48.408Z,-1.10
2022-12-17T03:22:33.766Z,-1.10
2022-12-17T03:25:20.586Z,-1.10
2022-12-17T03:28:06.190Z,-1.10
2022-12-17T03:30:51.902Z,-1.10
2022-12-17T03:33:37.658Z,-1.10
2022-12-17T03:36:23.386Z,-1.10
2022-12-17T03:39:08.911Z,-1.00
2022-12-17T03:41:54.352Z,-1.00
2022-12-17T03:44:39.653Z,-1.00
2022-12-17T03:47:25.138Z,-1.00
2022-12-17T03:50:10.430Z,-1.00
2022-12-17T03:52:57.943Z,-1.00
2022-12-17T03:55:43.687Z,-1.00
2022-12-17T03:58:29.338Z,-1.00
2022-12-17T04:01:14.842Z,-1.00
2022-12-17T04:04:00.200Z,-0.90
2022-12-17T04:06:45.503Z,-0.90
2022-12-17T04:09:30.867Z,-0.90
2022-12-17T04:12:16.385Z,-0.90
2022-12-17T04:15:01.825Z,-0.90
2022-12-17T04:17:47.220Z,-0.90
2022-12-17T04:20:32.695Z,-0.90
2022-12-17T04:23:18.355Z,-0.90
2022-12-17T04:26:03.725Z,-0.90
2022-12-17T04:28:49.086Z,-0.90
2022-12-17T04:31:34.895Z,-0.90
2022-12-17T04:34:20.584Z,-0.70
2022-12-17T04:37:06.278Z,-0.70
2022-12-17T04:39:51.806Z,-0.60
2022-12-17T04:42:37.821Z,-0.60
2022-12-17T04:45:23.625Z,-0.60
2022-12-17T04:48:09.327Z,-0.50
2022-12-17T04:50:54.821Z,-0.50
2022-12-17T04:53:40.493Z,-0.50
2022-12-17T04:56:26.133Z,-0.50
2022-12-17T04:59:11.571Z,-0.50
2022-12-17T05:01:57.182Z,-0.50
2022-12-17T05:04:56.882Z,-0.50
2022-12-17T05:07:42.319Z,-0.50
2022-12-17T05:10:28.077Z,-0.50
2022-12-17T05:13:19.433Z,-0.50
2022-12-17T05:16:05.439Z,-0.50
2022-12-17T05:18:51.416Z,-0.50
2022-12-17T05:21:36.794Z,-0.50
2022-12-17T05:24:22.466Z,-0.50
2022-12-17T05:27:07.934Z,-0.50
2022-12-17T05:29:53.696Z,-0.50
2022-12-17T05:32:39.533Z,-0.40
2022-12-17T05:35:40.156Z,-0.40
2022-12-17T05:38:26.835Z,-0.40
2022-12-17T05:41:15.197Z,-0.30
2022-12-17T05:44:01.271Z,-0.20
2022-12-17T05:46:47.085Z,-0.20
2022-12-17T05:49:32.975Z,-0.20
2022-12-17T05:52:18.593Z,-0.10
2022-12-17T05:55:04.194Z,0.00
2022-12-17T05:57:56.204Z,0.10
2022-12-17T06:00:42.065Z,0.10
2022-12-17T06:03:27.812Z,0.20
2022-12-17T06:06:14.521Z,0.30
2022-12-17T06:09:00.025Z,0.30
2022-12-17T06:11:45.613Z,0.40
2022-12-17T06:14:30.778Z,0.40
2022-12-17T06:17:16.484Z,0.50
2022-12-17T06:20:01.971Z,0.50
2022-12-17T06:22:47.699Z,0.60
2022-12-17T06:25:33.547Z,0.60
2022-12-17T06:28:22.659Z,0.70
2022-12-17T06:31:09.202Z,0.70
2022-12-17T06:33:54.936Z,0.70
2022-12-17T06:36:44.847Z,0.80
2022-12-17T06:39:30.231Z,0.80
2022-12-17T06:42:15.544Z,0.90
2022-12-17T06:45:01.351Z,0.90
2022-12-17T06:47:46.711Z,1.00
2022-12-17T06:50:32.432Z,1.00
2022-12-17T06:53:18.687Z,1.00
2022-12-17T06:56:04.851Z,1.00
2022-12-17T06:58:50.510Z,1.00
2022-12-17T07:01:36.441Z,1.80
2022-12-17T07:04:22.083Z,1.10
2022-12-17T07:07:14.540Z,1.20
2022-12-17T07:10:00.493Z,1.20
2022-12-17T07:12:46.435Z,1.20
2022-12-17T07:15:31.802Z,1.30
2022-12-17T07:18:21.451Z,1.30
2022-12-17T07:21:07.344Z,1.30
2022-12-17T07:23:52.816Z,1.40
2022-12-17T07:26:37.998Z,1.40
2022-12-17T07:29:23.602Z,1.40
2022-12-17T07:32:09.111Z,1.50
2022-12-17T07:34:54.598Z,1.50
2022-12-17T07:37:40.316Z,1.50
2022-12-17T07:40:26.402Z,1.50
2022-12-17T07:43:11.912Z,1.50
2022-12-17T07:45:57.470Z,1.50
2022-12-17T07:48:42.851Z,1.60
2022-12-17T07:51:28.529Z,1.60
2022-12-17T07:54:13.928Z,1.70
2022-12-17T07:56:59.618Z,1.70
2022-12-17T07:59:45.192Z,1.80
2022-12-17T08:02:32.134Z,1.80
2022-12-17T08:05:17.794Z,1.80
2022-12-17T08:08:03.028Z,1.80
2022-12-17T08:10:48.439Z,1.80
2022-12-17T08:13:48.201Z,1.90
2022-12-17T08:16:33.580Z,1.90
2022-12-17T08:19:19.282Z,1.90
2022-12-17T08:22:04.843Z,1.90
2022-12-17T08:24:50.492Z,1.90
2022-12-17T08:27:35.873Z,1.90
2022-12-17T08:30:21.837Z,2.00
2022-12-17T08:33:07.791Z,2.00
2022-12-17T08:35:53.261Z,2.00
2022-12-17T08:38:38.603Z,2.00
2022-12-17T08:41:24.100Z,2.00
2022-12-17T08:44:09.601Z,2.00
2022-12-17T08:46:55.112Z,2.10
2022-12-17T08:49:40.341Z,2.20
2022-12-17T08:52:26.016Z,2.30
2022-12-17T08:55:11.420Z,2.30
2022-12-17T08:57:56.878Z,2.40
2022-12-17T09:00:42.245Z,2.40
2022-12-17T09:03:27.597Z,2.50
2022-12-17T09:06:12.953Z,2.50
2022-12-17T09:08:58.361Z,2.60
2022-12-17T09:11:44.048Z,2.60
2022-12-17T09:14:29.734Z,2.60
2022-12-17T09:17:14.948Z,2.70
2022-12-17T09:20:00.589Z,2.70
2022-12-17T09:22:45.859Z,2.70
2022-12-17T09:25:31.611Z,2.70
2022-12-17T09:28:20.520Z,2.80
2022-12-17T09:31:05.942Z,2.80
2022-12-17T09:33:51.794Z,2.80
2022-12-17T09:36:37.215Z,2.90
2022-12-17T09:39:22.839Z,2.90
2022-12-17T09:42:23.562Z,3.00
2022-12-17T09:45:22.307Z,3.00
2022-12-17T09:48:11.055Z,3.00
2022-12-17T09:50:56.735Z,3.00
2022-12-17T09:54:11.355Z,3.00
2022-12-17T09:56:57.308Z,3.10
2022-12-17T09:59:52.735Z,3.10
2022-12-17T10:02:39.808Z,3.10
2022-12-17T10:05:32.286Z,3.20
2022-12-17T10:08:18.138Z,3.20
2022-12-17T10:11:18.984Z,3.20
2022-12-17T10:14:04.169Z,3.20
2022-12-17T10:16:53.109Z,3.10
2022-12-17T10:19:49.223Z,3.20
2022-12-17T10:22:39.174Z,3.20
2022-12-17T10:25:35.661Z,3.20
2022-12-17T10:28:23.562Z,3.20
2022-12-17T10:31:09.152Z,3.30
2022-12-17T10:34:11.999Z,3.30
2022-12-17T10:37:03.320Z,3.30
2022-12-17T10:39:48.856Z,3.30
2022-12-17T10:42:42.528Z,3.30
2022-12-17T10:45:40.527Z,3.40
2022-12-17T10:48:44.715Z,3.40
2022-12-17T10:51:44.371Z,3.40
2022-12-17T10:54:35.977Z,3.40
2022-12-17T10:57:21.576Z,3.40
2022-12-17T11:00:06.983Z,3.40
2022-12-17T11:02:52.613Z,3.30
2022-12-17T11:05:46.269Z,3.30
2022-12-17T11:08:35.721Z,3.40
2022-12-17T11:11:23.522Z,3.40
2022-12-17T11:14:09.998Z,3.40
2022-12-17T11:17:10.341Z,3.40
2022-12-17T11:20:08.065Z,3.40
2022-12-17T11:23:04.463Z,3.40
2022-12-17T11:25:56.499Z,3.50
2022-12-17T11:28:42.884Z,3.50
2022-12-17T11:31:37.589Z,3.50
2022-12-17T11:34:42.241Z,3.50
2022-12-17T11:37:27.960Z,3.50
2022-12-17T11:40:17.496Z,3.50
2022-12-17T11:43:22.734Z,3.50
2022-12-17T11:46:31.484Z,3.50
2022-12-17T11:49:29.221Z,3.50
2022-12-17T11:52:17.571Z,3.50
2022-12-17T11:55:03.006Z,3.50
2022-12-17T11:57:48.571Z,3.60
2022-12-17T12:00:38.167Z,3.50
2022-12-17T12:03:31.307Z,3.50
2022-12-17T12:06:18.425Z,3.50
2022-12-17T12:09:22.556Z,3.50
2022-12-17T12:12:26.973Z,3.50
2022-12-17T12:15:38.795Z,3.50
2022-12-17T12:18:43.401Z,3.50
2022-12-17T12:21:31.935Z,3.50
2022-12-17T12:24:23.144Z,3.40
2022-12-17T12:27:18.496Z,3.50
2022-12-17T12:30:17.429Z,3.50
2022-12-17T12:33:10.026Z,3.50
2022-12-17T12:35:56.695Z,3.50
2022-12-17T12:38:46.947Z,3.50
2022-12-17T12:41:42.138Z,3.50
2022-12-17T12:44:35.918Z,3.50
2022-12-17T12:47:25.759Z,3.50
2022-12-17T12:50:15.508Z,3.50
2022-12-17T12:53:01.076Z,3.50
2022-12-17T12:56:02.433Z,3.50
2022-12-17T12:58:49.238Z,3.50
2022-12-17T13:01:35.278Z,3.50
2022-12-17T13:04:26.530Z,3.50
2022-12-17T13:06:57.180Z,3.50
2022-12-17T13:09:32.487Z,3.40
2022-12-17T13:12:04.508Z,3.50
2022-12-17T13:14:50.865Z,3.50
2022-12-17T13:17:17.781Z,3.50
2022-12-17T13:20:07.562Z,3.50
2022-12-17T13:22:34.792Z,3.50
2022-12-17T13:25:21.946Z,3.50
2022-12-17T13:27:49.857Z,3.50
2022-12-17T13:30:22.808Z,3.50
2022-12-17T13:32:55.866Z,3.50
2022-12-17T13:35:35.057Z,3.50
2022-12-17T13:38:10.299Z,3.50
2022-12-17T13:40:56.267Z,3.60
2022-12-17T13:43:25.164Z,3.50
2022-12-17T13:45:53.024Z,3.40
2022-12-17T13:48:24.442Z,3.50
2022-12-17T13:50:55.504Z,3.40
2022-12-17T13:53:22.440Z,3.40
2022-12-17T13:55:51.119Z,3.40
2022-12-17T13:58:25.229Z,3.30
2022-12-17T14:00:52.697Z,3.40
2022-12-17T14:03:42.922Z,3.40
2022-12-17T14:06:11.644Z,3.40
2022-12-17T14:08:39.041Z,3.40
2022-12-17T14:11:24.861Z,3.40
2022-12-17T14:13:51.857Z,3.40
2022-12-17T14:16:20.143Z,3.40
2022-12-17T14:18:54.521Z,3.40
2022-12-17T14:21:25.272Z,3.40
2022-12-17T14:23:52.607Z,3.40
2022-12-17T14:26:21.469Z,3.40
2022-12-17T14:28:53.098Z,3.40
2022-12-17T14:31:27.520Z,3.40
2022-12-17T14:34:08.636Z,3.40
2022-12-17T14:36:39.071Z,3.40
2022-12-17T14:39:16.194Z,3.30
2022-12-17T14:42:01.406Z,3.30
2022-12-17T14:44:29.622Z,3.30
2022-12-17T14:47:11.610Z,3.30
2022-12-17T14:49:49.702Z,3.30
2022-12-17T14:52:32.603Z,3.30
2022-12-17T14:55:03.804Z,3.30
2022-12-17T14:57:30.878Z,3.30
2022-12-17T14:59:57.982Z,3.30
2022-12-17T15:02:29.485Z,3.30
2022-12-17T15:04:57.891Z,3.30
2022-12-17T15:07:27.254Z,3.30
2022-12-17T15:09:55.159Z,3.30
2022-12-17T15:12:22.748Z,3.30
2022-12-17T15:14:50.186Z,3.30
2022-12-17T15:17:18.894Z,3.30
2022-12-17T15:19:55.573Z,3.30
2022-12-17T15:22:23.423Z,3.30
2022-12-17T15:24:50.590Z,3.30
2022-12-17T15:27:18.253Z,3.30
2022-12-17T15:29:49.387Z,3.30
2022-12-17T15:32:20.558Z,3.30
2022-12-17T15:34:47.585Z,3.30
2022-12-17T15:37:15.177Z,3.30
2022-12-17T15:39:42.321Z,3.30
2022-12-17T15:42:28.572Z,3.30
2022-12-17T15:44:55.651Z,3.30
2022-12-17T15:47:22.745Z,3.30
2022-12-17T15:49:49.802Z,3.30
2022-12-17T15:52:16.948Z,3.30
2022-12-17T15:54:44.298Z,3.30
2022-12-17T15:57:16.796Z,3.30
2022-12-17T15:59:45.507Z,3.30
2022-12-17T16:02:12.929Z,3.30
2022-12-17T16:04:41.170Z,3.40
2022-12-17T16:07:08.260Z,3.40
2022-12-17T16:09:35.679Z,3.40
2022-12-17T16:12:02.664Z,3.40
2022-12-17T16:14:29.865Z,3.40
2022-12-17T16:16:56.811Z,3.40
2022-12-17T16:19:23.769Z,3.40
2022-12-17T16:21:50.814Z,3.30
2022-12-17T16:24:17.935Z,3.40
2022-12-17T16:26:44.955Z,3.40
2022-12-17T16:29:11.932Z,3.40
2022-12-17T16:31:39.018Z,3.40
2022-12-17T16:34:10.255Z,3.30
2022-12-17T16:36:37.626Z,3.30
2022-12-17T16:39:05.632Z,3.30
2022-12-17T16:41:32.923Z,3.40
2022-12-17T16:43:59.962Z,3.40
2022-12-17T16:46:27.134Z,3.40
2022-12-17T16:48:54.371Z,3.40
2022-12-17T16:51:28.535Z,3.40
2022-12-17T16:53:57.182Z,3.40
2022-12-17T16:56:25.649Z,3.40
2022-12-17T16:58:52.857Z,3.40
2022-12-17T17:01:21.012Z,3.40
2022-12-17T17:03:48.329Z,3.40
2022-12-17T17:06:15.926Z,3.40
2022-12-17T17:08:42.855Z,3.40
2022-12-17T17:11:21.735Z,3.40
2022-12-17T17:13:50.004Z,3.50
2022-12-17T17:16:18.094Z,3.50
2022-12-17T17:18:46.438Z,3.50
2022-12-17T17:21:14.360Z,3.40
2022-12-17T17:23:41.871Z,3.50
2022-12-17T17:26:09.700Z,3.50
2022-12-17T17:28:37.221Z,3.50
2022-12-17T17:31:05.804Z,3.50
2022-12-17T17:33:34.598Z,3.50
2022-12-17T17:36:08.888Z,3.50
2022-12-17T17:38:37.489Z,3.50
2022-12-17T17:41:07.968Z,3.50
2022-12-17T17:43:39.045Z,3.50
2022-12-17T17:46:13.453Z,3.50
2022-12-17T17:48:50.644Z,3.50
2022-12-17T17:51:38.930Z,3.60
2022-12-17T17:54:14.199Z,3.50
2022-12-17T17:56:42.059Z,3.50
2022-12-17T17:59:12.034Z,3.50
2022-12-17T18:01:43.656Z,3.50
2022-12-17T18:04:15.406Z,3.50
2022-12-17T18:07:02.590Z,3.50
2022-12-17T18:09:31.658Z,3.50
2022-12-17T18:12:18.633Z,3.50
2022-12-17T18:15:11.868Z,3.50
2022-12-17T18:17:32.959Z,3.50
2022-12-17T18:20:00.338Z,3.50
2022-12-17T18:22:30.553Z,3.50
2022-12-17T18:25:01.538Z,3.50
2022-12-17T18:27:28.706Z,3.50
2022-12-17T18:29:55.657Z,3.50
2022-12-17T18:32:25.716Z,3.50
2022-12-17T18:34:58.310Z,3.50
2022-12-17T18:37:25.552Z,3.50
2022-12-17T18:39:56.039Z,3.50
2022-12-17T18:42:41.822Z,3.50
2022-12-17T18:45:09.033Z,3.50
2022-12-17T18:47:39.178Z,3.50
2022-12-17T18:50:06.492Z,3.50
2022-12-17T18:52:33.993Z,3.50
2022-12-17T18:55:04.457Z,3.40
2022-12-17T18:57:32.073Z,3.50
2022-12-17T18:59:59.042Z,3.50
2022-12-17T19:02:26.072Z,3.50
2022-12-17T19:04:53.181Z,3.50
2022-12-17T19:07:20.326Z,3.50
2022-12-17T19:09:47.250Z,3.50
2022-12-17T19:12:14.341Z,3.50
2022-12-17T19:14:44.724Z,3.50
2022-12-17T19:17:11.681Z,3.50
2022-12-17T19:19:38.832Z,3.50
2022-12-17T19:22:06.261Z,3.50
2022-12-17T19:24:33.484Z,3.40
2022-12-17T19:27:00.415Z,3.50
2022-12-17T19:29:27.448Z,3.50
2022-12-17T19:31:54.491Z,3.50
2022-12-17T19:34:21.727Z,3.50
2022-12-17T19:36:51.402Z,3.50
2022-12-17T19:39:19.781Z,3.50
2022-12-17T19:41:51.122Z,3.50
2022-12-17T19:44:18.163Z,3.50
2022-12-17T19:46:45.518Z,3.50
2022-12-17T19:49:16.932Z,3.50
2022-12-17T19:51:44.548Z,3.50
2022-12-17T19:54:13.527Z,3.50
2022-12-17T19:56:40.679Z,3.50
2022-12-17T19:59:08.429Z,3.50
2022-12-17T20:01:37.278Z,3.50
2022-12-17T20:04:07.222Z,3.40
2022-12-17T20:06:38.219Z,3.40
2022-12-17T20:09:05.651Z,3.50
2022-12-17T20:11:33.132Z,3.50
2022-12-17T20:14:11.748Z,3.50
2022-12-17T20:16:43.489Z,3.50
2022-12-17T20:19:12.551Z,3.50
2022-12-17T20:21:39.655Z,3.50
2022-12-17T20:24:06.889Z,3.50
2022-12-17T20:26:34.218Z,3.50
2022-12-17T20:29:01.401Z,3.50
2022-12-17T20:31:28.512Z,3.50
2022-12-17T20:33:57.079Z,3.50
2022-12-17T20:36:24.272Z,3.50
2022-12-17T20:38:52.010Z,3.60
2022-12-17T20:41:20.840Z,3.60
2022-12-17T20:43:48.905Z,3.60
2022-12-17T20:46:17.140Z,3.60
2022-12-17T20:48:44.895Z,3.60
2022-12-17T20:51:16.523Z,3.60
2022-12-17T20:53:44.068Z,3.60
2022-12-17T20:56:13.043Z,3.60
2022-12-17T20:58:42.139Z,3.60
2022-12-17T21:01:14.491Z,3.60
2022-12-17T21:03:45.748Z,3.60
2022-12-17T21:06:18.412Z,3.60
2022-12-17T21:08:51.139Z,3.60
2022-12-17T21:11:19.046Z,3.60
2022-12-17T21:13:46.309Z,3.60
2022-12-17T21:16:15.844Z,3.70
2022-12-17T21:18:43.741Z,3.60
2022-12-17T21:21:12.990Z,3.60
2022-12-17T21:23:41.603Z,3.60
2022-12-17T21:26:10.462Z,3.70
2022-12-17T21:28:38.701Z,3.60
2022-12-17T21:31:07.020Z,3.60
2022-12-17T21:33:34.506Z,3.60
2022-12-17T21:36:07.842Z,3.60
2022-12-17T21:38:39.547Z,3.60
2022-12-17T21:41:11.455Z,3.60
2022-12-17T21:43:39.888Z,3.70
2022-12-17T21:46:08.257Z,3.60
2022-12-17T21:48:41.977Z,3.60
2022-12-17T21:51:11.177Z,3.60
2022-12-17T21:53:47.739Z,3.60
2022-12-17T21:56:19.235Z,3.60
2022-12-17T21:58:46.979Z,3.60
2022-12-17T22:01:19.505Z,3.60
2022-12-17T22:03:47.661Z,3.60
2022-12-17T22:06:21.813Z,3.60
2022-12-17T22:08:53.634Z,3.50
2022-12-17T22:11:25.690Z,3.50
2022-12-17T22:14:18.808Z,3.50
2022-12-17T22:16:51.484Z,3.50
2022-12-17T22:19:21.797Z,3.50
2022-12-17T22:21:50.722Z,3.50
2022-12-17T22:24:19.224Z,3.50
2022-12-17T22:26:46.435Z,3.50
2022-12-17T22:29:34.227Z,3.60
2022-12-17T22:32:19.720Z,3.60
2022-12-17T22:35:43.853Z,3.60
2022-12-17T22:39:47.642Z,3.60
2022-12-17T22:44:34.854Z,3.60
2022-12-17T22:44:43.213Z,3.60
2022-12-17T22:46:17.282Z,3.60
2022-12-17T22:48:47.728Z,3.60
2022-12-17T22:51:18.929Z,3.60
2022-12-17T22:53:54.896Z,3.60
2022-12-17T22:56:39.207Z,3.60
2022-12-17T22:59:19.584Z,3.60
2022-12-17T23:01:47.097Z,3.60
2022-12-17T23:04:16.166Z,3.60
2022-12-17T23:06:45.574Z,3.60
2022-12-17T23:09:13.767Z,3.60
2022-12-17T23:11:41.056Z,3.60
2022-12-17T23:14:08.588Z,3.60
2022-12-17T23:16:37.587Z,3.50
2022-12-17T23:19:05.730Z,3.60
2022-12-17T23:21:33.168Z,3.50
2022-12-17T23:24:00.291Z,3.50
2022-12-17T23:26:29.324Z,3.50
2022-12-17T23:28:59.570Z,3.50
2022-12-17T23:31:27.872Z,3.50
2022-12-17T23:33:55.324Z,3.50
2022-12-17T23:36:23.467Z,3.50
2022-12-17T23:38:50.971Z,3.50
2022-12-17T23:41:25.891Z,3.50
2022-12-17T23:43:53.416Z,3.50
2022-12-17T23:46:21.271Z,3.50
2022-12-17T23:48:48.537Z,3.40
2022-12-17T23:51:16.687Z,3.40
2022-12-17T23:53:44.037Z,3.40
2022-12-17T23:56:15.625Z,3.40
2022-12-17T23:58:43.406Z,3.40
